createdAt,value
2022-10-12T00:02:37.594Z,99.90
2022-10-12T00:07:40.744Z,99.90
2022-10-12T00:12:43.863Z,99.90
2022-10-12T00:17:46.649Z,99.90
2022-10-12T00:22:49.421Z,99.90
2022-10-12T00:27:52.219Z,99.90
2022-10-12T00:32:54.876Z,99.90
2022-10-12T00:37:57.563Z,99.90
2022-10-12T00:43:00.312Z,99.90
2022-10-12T00:48:03.100Z,99.90
2022-10-12T00:53:13.593Z,99.90
2022-10-12T00:58:16.923Z,99.90
2022-10-12T01:03:22.789Z,99.90
2022-10-12T01:08:25.613Z,99.90
2022-10-12T01:13:28.630Z,99.90
2022-10-12T01:18:52.034Z,99.90
2022-10-12T01:24:19.413Z,99.90
2022-10-12T01:29:59.712Z,99.90
2022-10-12T01:35:08.533Z,99.90
2022-10-12T01:40:44.070Z,99.90
2022-10-12T01:45:46.934Z,99.90
2022-10-12T01:50:52.930Z,99.90
2022-10-12T01:56:09.388Z,99.90
2022-10-12T02:01:27.234Z,99.90
2022-10-12T02:06:37.293Z,99.90
2022-10-12T02:11:43.383Z,99.90
2022-10-12T02:16:59.367Z,99.90
2022-10-12T02:22:05.199Z,99.90
2022-10-12T02:27:11.334Z,99.90
2022-10-12T02:32:31.381Z,99.90
2022-10-12T02:37:51.646Z,99.90
2022-10-12T02:43:15.351Z,99.90
2022-10-12T02:48:23.865Z,99.90
2022-10-12T02:53:28.168Z,99.90
2022-10-12T02:58:31.117Z,99.90
2022-10-12T03:03:33.969Z,99.90
2022-10-12T03:08:36.682Z,99.90
2022-10-12T03:13:39.655Z,99.90
2022-10-12T03:18:42.708Z,99.90
2022-10-12T03:23:45.632Z,99.90
2022-10-12T03:28:48.550Z,99.90
2022-10-12T03:33:51.741Z,99.90
2022-10-12T03:38:54.512Z,99.90
2022-10-12T03:43:57.319Z,99.90
2022-10-12T03:48:59.991Z,99.90
2022-10-12T03:54:02.732Z,99.90
2022-10-12T03:59:05.745Z,99.90
2022-10-12T04:04:08.438Z,99.90
2022-10-12T04:09:11.222Z,99.90
2022-10-12T04:14:14.004Z,99.90
2022-10-12T04:19:16.903Z,99.90
2022-10-12T04:24:19.694Z,99.90
2022-10-12T04:29:22.822Z,99.90
2022-10-12T04:34:25.700Z,99.90
2022-10-12T04:39:28.528Z,99.90
2022-10-12T04:44:32.411Z,99.90
2022-10-12T04:49:36.213Z,99.90
2022-10-12T04:54:39.324Z,99.90
2022-10-12T04:59:42.164Z,99.90
2022-10-12T05:04:44.875Z,99.90
2022-10-12T05:09:47.805Z,99.90
2022-10-12T05:14:50.484Z,99.90
2022-10-12T05:19:53.694Z,99.90
2022-10-12T05:24:56.512Z,99.90
2022-10-12T05:29:59.332Z,99.90
2022-10-12T05:35:02.374Z,99.90
2022-10-12T05:40:06.313Z,99.90
2022-10-12T05:45:09.995Z,99.90
2022-10-12T05:50:13.278Z,99.90
2022-10-12T05:55:16.452Z,99.90
2022-10-12T06:00:19.512Z,99.90
2022-10-12T06:05:22.422Z,99.90
2022-10-12T06:10:29.110Z,99.90
2022-10-12T06:15:32.950Z,99.90
2022-10-12T06:20:35.739Z,99.90
2022-10-12T06:25:38.592Z,99.90
2022-10-12T06:30:41.593Z,99.90
2022-10-12T06:35:44.401Z,99.90
2022-10-12T06:40:47.452Z,99.90
2022-10-12T06:45:51.178Z,99.90
2022-10-12T06:50:54.476Z,99.90
2022-10-12T06:55:57.447Z,99.90
2022-10-12T07:01:06.528Z,99.90
2022-10-12T07:06:13.054Z,99.90
2022-10-12T07:11:16.254Z,99.90
2022-10-12T07:16:19.453Z,99.90
2022-10-12T07:21:23.116Z,99.90
2022-10-12T07:26:26.438Z,99.90
2022-10-12T07:31:29.392Z,99.90
2022-10-12T07:36:57.535Z,99.90
2022-10-12T07:41:55.466Z,99.90
2022-10-12T07:46:58.717Z,99.90
2022-10-12T07:52:01.655Z,99.90
2022-10-12T07:57:04.547Z,99.90
2022-10-12T08:02:07.609Z,99.90
2022-10-12T08:07:10.793Z,99.90
2022-10-12T08:12:14.092Z,99.90
2022-10-12T08:17:17.196Z,99.90
2022-10-12T08:22:20.077Z,99.90
2022-10-12T08:27:23.002Z,99.90
2022-10-12T08:32:26.255Z,99.90
2022-10-12T08:37:30.659Z,99.90
2022-10-12T08:42:53.619Z,99.90
2022-10-12T08:48:07.219Z,99.90
2022-10-12T08:53:18.679Z,99.90
2022-10-12T08:58:34.092Z,99.90
2022-10-12T09:04:01.419Z,99.90
2022-10-12T09:09:37.918Z,99.90
2022-10-12T09:14:43.820Z,99.90
2022-10-12T09:19:46.544Z,99.90
2022-10-12T09:24:51.174Z,99.90
2022-10-12T09:30:01.823Z,99.90
2022-10-12T09:35:08.560Z,99.90
2022-10-12T09:40:29.328Z,99.90
2022-10-12T09:45:34.738Z,99.90
2022-10-12T09:50:51.713Z,99.90
2022-10-12T09:56:24.758Z,98.30
2022-10-12T10:01:30.519Z,91.30
2022-10-12T10:06:33.434Z,84.80
2022-10-12T10:11:36.453Z,84.70
2022-10-12T10:16:51.829Z,72.20
2022-10-12T10:21:56.191Z,71.00
2022-10-12T10:27:07.371Z,69.30
2022-10-12T10:32:27.646Z,69.10
2022-10-12T10:37:32.064Z,57.50
2022-10-12T10:42:35.574Z,58.50
2022-10-12T10:47:46.858Z,56.40
2022-10-12T10:52:57.097Z,57.80
2022-10-12T10:58:06.050Z,51.50
2022-10-12T11:03:37.950Z,46.50
2022-10-12T11:08:43.785Z,45.00
2022-10-12T11:13:57.113Z,42.80
2022-10-12T11:19:09.842Z,47.00
2022-10-12T11:24:25.506Z,44.20
2022-10-12T11:29:28.443Z,44.90
2022-10-12T11:34:54.593Z,42.60
2022-10-12T11:39:59.243Z,39.30
2022-10-12T11:45:07.164Z,39.40
2022-10-12T11:50:28.063Z,39.70
2022-10-12T11:55:33.915Z,38.10
2022-10-12T12:00:56.991Z,39.50
2022-10-12T12:06:31.791Z,39.50
2022-10-12T12:11:35.468Z,40.10
2022-10-12T12:16:44.138Z,39.80
2022-10-12T12:22:23.847Z,36.20
2022-10-12T12:27:41.157Z,37.50
2022-10-12T12:32:57.414Z,37.10
2022-10-12T12:38:19.220Z,39.00
2022-10-12T12:43:31.588Z,41.10
2022-10-12T12:48:43.440Z,40.30
2022-10-12T12:53:58.903Z,36.30
2022-10-12T12:59:38.943Z,37.70
2022-10-12T13:05:00.683Z,36.20
2022-10-12T13:10:24.002Z,36.60
2022-10-12T13:15:45.480Z,34.80
2022-10-12T13:20:49.775Z,37.10
2022-10-12T13:26:04.220Z,38.90
2022-10-12T13:31:18.694Z,39.90
2022-10-12T13:36:26.313Z,39.10
2022-10-12T13:41:30.724Z,40.70
2022-10-12T13:46:49.714Z,41.60
2022-10-12T13:52:01.462Z,40.80
2022-10-12T13:57:21.574Z,41.60
2022-10-12T14:02:26.902Z,44.30
2022-10-12T14:07:34.272Z,44.70
2022-10-12T14:12:38.227Z,42.60
2022-10-12T14:17:45.958Z,43.70
2022-10-12T14:22:50.095Z,45.30
2022-10-12T14:28:01.891Z,45.40
2022-10-12T14:33:16.689Z,46.80
2022-10-12T14:38:45.618Z,48.80
2022-10-12T14:44:16.713Z,46.90
2022-10-12T14:49:27.572Z,48.60
2022-10-12T14:54:30.574Z,53.60
2022-10-12T14:59:33.270Z,54.00
2022-10-12T15:04:36.158Z,56.40
2022-10-12T15:09:38.971Z,60.70
2022-10-12T15:14:42.814Z,69.10
2022-10-12T15:19:47.594Z,72.00
2022-10-12T15:24:52.693Z,81.00
2022-10-12T15:29:55.679Z,89.70
2022-10-12T15:34:58.594Z,96.00
2022-10-12T15:40:01.511Z,99.90
2022-10-12T15:45:37.615Z,99.90
2022-10-12T15:50:49.172Z,99.90
2022-10-12T15:55:56.502Z,99.90
2022-10-12T16:00:59.358Z,99.90
2022-10-12T16:06:02.522Z,99.90
2022-10-12T16:11:07.262Z,99.90
2022-10-12T16:16:10.052Z,99.90
2022-10-12T16:21:13.039Z,99.90
2022-10-12T16:26:16.313Z,99.90
2022-10-12T16:31:19.186Z,99.90
2022-10-12T16:36:22.042Z,99.90
2022-10-12T16:41:24.903Z,99.90
2022-10-12T16:46:27.747Z,99.90
2022-10-12T16:51:30.591Z,99.90
2022-10-12T16:56:37.184Z,99.90
2022-10-12T17:01:43.139Z,99.90
2022-10-12T17:06:46.318Z,99.90
2022-10-12T17:11:49.228Z,99.90
2022-10-12T17:16:52.685Z,99.90
2022-10-12T17:21:59.663Z,99.90
2022-10-12T17:27:04.156Z,99.90
2022-10-12T17:32:08.083Z,99.90
2022-10-12T17:37:17.240Z,99.90
2022-10-12T17:42:22.287Z,99.90
2022-10-12T17:47:25.303Z,99.90
2022-10-12T17:52:28.379Z,99.90
2022-10-12T17:57:31.220Z,99.90
2022-10-12T18:02:34.103Z,99.90
2022-10-12T18:07:38.861Z,99.90
2022-10-12T18:12:41.626Z,99.90
2022-10-12T18:17:44.626Z,99.90
2022-10-12T18:22:47.923Z,99.90
2022-10-12T18:27:51.873Z,99.90
2022-10-12T18:32:54.710Z,99.90
2022-10-12T18:37:57.574Z,99.90
2022-10-12T18:43:00.474Z,99.90
2022-10-12T18:48:07.272Z,99.90
2022-10-12T18:53:10.160Z,99.90
2022-10-12T18:58:13.078Z,99.90
2022-10-12T19:03:15.993Z,99.90
2022-10-12T19:08:18.783Z,99.90
2022-10-12T19:13:21.610Z,99.90
2022-10-12T19:18:24.569Z,99.90
2022-10-12T19:23:27.412Z,99.90
2022-10-12T19:28:30.373Z,99.90
2022-10-12T19:33:33.159Z,99.90
2022-10-12T19:38:36.701Z,99.90
2022-10-12T19:43:40.312Z,99.90
2022-10-12T19:48:43.452Z,99.90
2022-10-12T19:53:46.272Z,99.90
2022-10-12T19:58:50.388Z,99.90
2022-10-12T20:03:53.719Z,99.90
2022-10-12T20:08:59.701Z,99.90
2022-10-12T20:14:03.652Z,99.90
2022-10-12T20:19:07.386Z,99.90
2022-10-12T20:24:10.436Z,99.90
2022-10-12T20:29:13.339Z,99.90
2022-10-12T20:34:16.412Z,99.90
2022-10-12T20:39:20.040Z,99.90
2022-10-12T20:44:22.922Z,99.90
2022-10-12T20:49:30.852Z,99.90
2022-10-12T20:54:36.019Z,99.90
2022-10-12T20:59:38.857Z,99.90
2022-10-12T21:04:41.659Z,99.90
2022-10-12T21:09:45.320Z,99.90
2022-10-12T21:14:48.282Z,99.90
2022-10-12T21:19:52.753Z,99.90
2022-10-12T21:24:55.612Z,99.90
2022-10-12T21:29:58.511Z,99.90
2022-10-12T21:35:01.402Z,99.90
2022-10-12T21:40:04.608Z,99.90
2022-10-12T21:45:07.863Z,99.90
2022-10-12T21:50:10.951Z,99.90
2022-10-12T21:55:13.833Z,99.90
2022-10-12T22:00:16.871Z,99.90
2022-10-12T22:05:20.873Z,99.90
2022-10-12T22:10:23.732Z,99.90
2022-10-12T22:15:26.512Z,99.90
2022-10-12T22:20:29.929Z,99.90
2022-10-12T22:25:32.555Z,99.90
2022-10-12T22:30:38.780Z,99.90
2022-10-12T22:35:51.428Z,99.90
2022-10-12T22:40:55.940Z,99.90
2022-10-12T22:45:59.272Z,99.90
2022-10-12T22:51:02.623Z,99.90
2022-10-12T22:56:09.077Z,99.90
2022-10-12T23:01:14.928Z,99.90
2022-10-12T23:06:18.944Z,99.90
2022-10-12T23:11:26.908Z,99.90
2022-10-12T23:16:31.512Z,99.90
2022-10-12T23:21:35.070Z,99.90
2022-10-12T23:26:37.752Z,99.90
2022-10-12T23:31:40.453Z,99.90
2022-10-12T23:36:43.115Z,99.90
2022-10-12T23:41:45.934Z,99.90
2022-10-12T23:46:48.642Z,99.90
2022-10-12T23:51:51.532Z,99.90
2022-10-12T23:56:54.294Z,99.90
